createdAt,value
2023-12-13T00:01:14.435Z,6.74
2023-12-13T00:04:03.794Z,6.67
2023-12-13T00:06:51.787Z,6.67
2023-12-13T00:09:40.194Z,6.64
2023-12-13T00:12:28.208Z,6.59
2023-12-13T00:15:16.477Z,6.58
2023-12-13T00:18:04.673Z,6.58
2023-12-13T00:20:54.061Z,6.55
2023-12-13T00:23:43.441Z,6.60
2023-12-13T00:26:31.517Z,6.58
2023-12-13T00:29:19.546Z,6.66
2023-12-13T00:32:07.986Z,6.68
2023-12-13T00:34:56.003Z,6.66
2023-12-13T00:37:45.394Z,6.72
2023-12-13T00:40:33.500Z,6.78
2023-12-13T00:43:22.734Z,6.81
2023-12-13T00:46:15.792Z,6.84
2023-12-13T00:49:03.968Z,6.87
2023-12-13T00:51:52.050Z,6.87
2023-12-13T00:54:41.406Z,6.90
2023-12-13T00:57:29.542Z,6.90
2023-12-13T01:00:18.358Z,6.88
2023-12-13T01:03:06.352Z,6.90
2023-12-13T01:05:54.469Z,6.93
2023-12-13T01:08:42.464Z,6.94
2023-12-13T01:11:32.880Z,6.96
2023-12-13T01:14:21.111Z,6.95
2023-12-13T01:17:11.364Z,6.93
2023-12-13T01:19:59.824Z,6.93
2023-12-13T01:22:49.165Z,6.93
2023-12-13T01:25:37.335Z,6.94
2023-12-13T01:28:26.882Z,6.96
2023-12-13T01:31:15.034Z,6.97
2023-12-13T01:34:04.067Z,6.96
2023-12-13T01:36:52.068Z,6.93
2023-12-13T01:39:43.150Z,6.95
2023-12-13T01:42:31.191Z,6.96
2023-12-13T01:45:20.504Z,6.97
2023-12-13T01:48:08.546Z,6.97
2023-12-13T01:50:57.208Z,7.01
2023-12-13T01:53:45.646Z,7.02
2023-12-13T01:56:34.288Z,7.05
2023-12-13T01:59:22.347Z,7.07
2023-12-13T02:02:12.010Z,7.06
2023-12-13T02:05:02.187Z,7.08
2023-12-13T02:07:50.335Z,7.07
2023-12-13T02:10:39.572Z,7.01
2023-12-13T02:13:27.988Z,7.00
2023-12-13T02:16:16.132Z,6.93
2023-12-13T02:19:05.539Z,6.92
2023-12-13T02:21:53.510Z,6.87
2023-12-13T02:24:44.788Z,6.83
2023-12-13T02:27:33.121Z,6.76
2023-12-13T02:30:22.810Z,6.75
2023-12-13T02:33:13.543Z,6.72
2023-12-13T02:36:04.252Z,6.66
2023-12-13T02:38:52.237Z,6.65
2023-12-13T02:41:41.586Z,6.60
2023-12-13T02:44:29.585Z,6.55
2023-12-13T02:47:17.579Z,6.49
2023-12-13T02:50:07.368Z,6.43
2023-12-13T02:52:55.513Z,6.41
2023-12-13T02:55:43.529Z,6.45
2023-12-13T02:58:32.975Z,6.39
2023-12-13T03:01:21.081Z,6.34
2023-12-13T03:04:09.265Z,6.33
2023-12-13T03:06:57.218Z,6.36
2023-12-13T03:09:45.335Z,6.32
2023-12-13T03:12:33.364Z,6.30
2023-12-13T03:15:22.662Z,6.28
2023-12-13T03:18:11.085Z,6.26
2023-12-13T03:20:59.126Z,6.29
2023-12-13T03:23:47.097Z,6.34
2023-12-13T03:26:35.158Z,6.34
2023-12-13T03:29:23.498Z,6.37
2023-12-13T03:32:12.857Z,6.39
2023-12-13T03:35:00.902Z,6.45
2023-12-13T03:37:49.302Z,6.51
2023-12-13T03:40:37.316Z,6.53
2023-12-13T03:43:25.343Z,6.51
2023-12-13T03:46:13.619Z,6.52
2023-12-13T03:49:03.002Z,6.49
2023-12-13T03:51:51.036Z,6.50
2023-12-13T03:54:38.990Z,6.49
2023-12-13T03:57:28.222Z,6.46
2023-12-13T04:00:16.419Z,6.43
2023-12-13T04:03:04.497Z,6.52
2023-12-13T04:05:53.900Z,6.60
2023-12-13T04:08:41.920Z,6.66
2023-12-13T04:11:30.049Z,6.69
2023-12-13T04:14:18.031Z,6.70
2023-12-13T04:17:06.101Z,6.75
2023-12-13T04:19:55.834Z,6.79
2023-12-13T04:22:46.176Z,6.81
2023-12-13T04:25:34.224Z,6.84
2023-12-13T04:28:22.296Z,6.87
2023-12-13T04:31:10.354Z,6.88
2023-12-13T04:33:58.427Z,6.86
2023-12-13T04:36:46.469Z,6.89
2023-12-13T04:39:37.710Z,6.89
2023-12-13T04:42:27.030Z,6.90
2023-12-13T04:45:15.691Z,6.85
2023-12-13T04:48:03.942Z,6.85
2023-12-13T04:50:52.076Z,6.84
2023-12-13T04:53:40.015Z,6.82
2023-12-13T04:56:29.303Z,6.83
2023-12-13T04:59:17.365Z,6.81
2023-12-13T05:02:05.601Z,6.83
2023-12-13T05:04:53.714Z,6.82
2023-12-13T05:07:41.792Z,6.78
2023-12-13T05:10:29.842Z,6.90
2023-12-13T05:13:19.843Z,6.91
2023-12-13T05:16:09.505Z,6.92
2023-12-13T05:18:57.526Z,6.88
2023-12-13T05:21:45.487Z,6.94
2023-12-13T05:24:33.435Z,6.95
2023-12-13T05:27:21.502Z,6.98
2023-12-13T05:30:11.676Z,6.97
2023-12-13T05:32:59.783Z,6.96
2023-12-13T05:35:47.843Z,6.97
2023-12-13T05:38:35.836Z,6.98
2023-12-13T05:41:23.803Z,7.03
2023-12-13T05:44:11.762Z,7.05
2023-12-13T05:47:01.337Z,7.05
2023-12-13T05:49:49.365Z,7.04
2023-12-13T05:52:37.990Z,7.05
2023-12-13T05:55:26.112Z,7.04
2023-12-13T05:58:14.179Z,7.03
2023-12-13T06:01:02.188Z,7.05
2023-12-13T06:03:51.562Z,7.02
2023-12-13T06:06:45.157Z,7.02
2023-12-13T06:09:33.157Z,7.01
2023-12-13T06:12:21.143Z,6.99
2023-12-13T06:15:09.854Z,6.98
2023-12-13T06:17:58.574Z,7.00
2023-12-13T06:20:47.985Z,7.03
2023-12-13T06:23:36.102Z,7.06
2023-12-13T06:26:24.410Z,7.04
2023-12-13T06:29:12.739Z,7.06
2023-12-13T06:32:00.877Z,7.10
2023-12-13T06:34:48.985Z,7.16
2023-12-13T06:37:38.332Z,7.14
2023-12-13T06:40:26.862Z,7.19
2023-12-13T06:43:15.523Z,7.18
2023-12-13T06:46:04.065Z,7.20
2023-12-13T06:48:52.711Z,7.24
2023-12-13T06:51:40.882Z,7.29
2023-12-13T06:54:30.370Z,7.26
2023-12-13T06:57:18.718Z,7.24
2023-12-13T07:00:09.727Z,7.25
2023-12-13T07:02:57.721Z,7.22
2023-12-13T07:05:46.504Z,7.23
2023-12-13T07:08:36.014Z,7.20
2023-12-13T07:11:27.952Z,7.20
2023-12-13T07:14:17.610Z,7.23
2023-12-13T07:17:05.939Z,7.22
2023-12-13T07:19:53.942Z,7.20
2023-12-13T07:22:42.301Z,7.20
2023-12-13T07:25:30.399Z,7.16
2023-12-13T07:28:19.780Z,7.12
2023-12-13T07:31:10.316Z,7.09
2023-12-13T07:34:02.807Z,7.10
2023-12-13T07:36:52.247Z,7.12
2023-12-13T07:39:40.258Z,7.13
2023-12-13T07:42:29.116Z,7.14
2023-12-13T07:45:19.800Z,7.14
2023-12-13T07:48:17.991Z,7.17
2023-12-13T07:51:14.483Z,7.17
2023-12-13T07:54:03.883Z,7.18
2023-12-13T07:56:53.461Z,7.19
2023-12-13T07:59:41.493Z,7.22
2023-12-13T08:02:35.806Z,7.24
2023-12-13T08:05:29.025Z,7.27
2023-12-13T08:08:17.485Z,7.30
2023-12-13T08:11:06.002Z,7.31
2023-12-13T08:13:54.229Z,7.35
2023-12-13T08:16:42.491Z,7.37
2023-12-13T08:19:31.835Z,7.38
2023-12-13T08:22:19.794Z,7.41
2023-12-13T08:25:08.743Z,7.43
2023-12-13T08:27:56.754Z,7.46
2023-12-13T08:30:44.870Z,7.51
2023-12-13T08:33:32.936Z,7.54
2023-12-13T08:36:22.990Z,7.59
2023-12-13T08:39:12.224Z,7.63
2023-12-13T08:42:00.300Z,7.68
2023-12-13T08:44:48.367Z,7.69
2023-12-13T08:47:36.536Z,7.72
2023-12-13T08:50:24.595Z,7.74
2023-12-13T08:53:13.986Z,7.82
2023-12-13T08:56:04.563Z,7.82
2023-12-13T08:58:54.103Z,7.84
2023-12-13T09:01:42.264Z,7.87
2023-12-13T09:04:30.352Z,7.90
2023-12-13T09:07:18.875Z,7.89
2023-12-13T09:10:10.476Z,7.89
2023-12-13T09:12:58.498Z,7.89
2023-12-13T09:15:46.454Z,7.96
2023-12-13T09:18:34.548Z,8.03
2023-12-13T09:21:23.305Z,8.05
2023-12-13T09:24:11.291Z,8.07
2023-12-13T09:27:00.695Z,8.08
2023-12-13T09:29:48.689Z,8.09
2023-12-13T09:32:36.891Z,8.15
2023-12-13T09:35:24.995Z,8.21
2023-12-13T09:38:13.138Z,8.16
2023-12-13T09:41:01.434Z,8.13
2023-12-13T09:43:51.491Z,8.19
2023-12-13T09:46:42.176Z,8.26
2023-12-13T09:49:37.745Z,8.28
2023-12-13T09:52:28.324Z,8.22
2023-12-13T09:55:17.322Z,8.25
2023-12-13T09:58:05.608Z,8.27
2023-12-13T10:00:55.178Z,8.25
2023-12-13T10:03:43.558Z,8.20
2023-12-13T10:06:31.746Z,8.23
2023-12-13T10:09:19.715Z,8.22
2023-12-13T10:12:09.071Z,8.24
2023-12-13T10:14:57.151Z,8.25
2023-12-13T10:17:46.503Z,8.27
2023-12-13T10:20:36.525Z,8.31
2023-12-13T10:23:25.987Z,8.35
2023-12-13T10:26:14.008Z,8.40
2023-12-13T10:29:02.125Z,8.36
2023-12-13T10:31:50.071Z,8.38
2023-12-13T10:34:39.471Z,8.37
2023-12-13T10:37:30.580Z,8.41
2023-12-13T10:40:21.508Z,8.34
2023-12-13T10:43:11.715Z,8.39
2023-12-13T10:46:02.923Z,8.42
2023-12-13T10:48:51.047Z,8.39
2023-12-13T10:51:41.206Z,8.35
2023-12-13T10:54:30.493Z,8.33
2023-12-13T10:57:19.122Z,8.33
2023-12-13T11:00:09.151Z,8.40
2023-12-13T11:03:16.792Z,8.43
2023-12-13T11:06:06.065Z,8.45
2023-12-13T11:08:55.422Z,8.52
2023-12-13T11:11:43.746Z,8.56
2023-12-13T11:14:31.866Z,8.64
2023-12-13T11:17:20.985Z,8.68
2023-12-13T11:20:11.256Z,8.65
2023-12-13T11:22:59.373Z,8.67
2023-12-13T11:25:51.840Z,8.68
2023-12-13T11:28:40.668Z,8.67
2023-12-13T11:31:29.218Z,8.71
2023-12-13T11:34:18.687Z,8.72
2023-12-13T11:37:08.521Z,8.79
2023-12-13T11:39:58.032Z,8.82
2023-12-13T11:42:47.548Z,8.81
2023-12-13T11:45:35.575Z,8.78
2023-12-13T11:48:24.171Z,8.79
2023-12-13T11:51:12.216Z,8.72
2023-12-13T11:54:01.681Z,8.71
2023-12-13T11:56:49.745Z,8.68
2023-12-13T11:59:39.149Z,8.65
2023-12-13T12:02:27.180Z,8.66
2023-12-13T12:05:15.427Z,8.64
2023-12-13T12:08:08.407Z,8.64
2023-12-13T12:10:57.573Z,8.63
2023-12-13T12:13:45.718Z,8.58
2023-12-13T12:16:35.241Z,8.55
2023-12-13T12:19:23.411Z,8.51
2023-12-13T12:22:13.593Z,8.42
2023-12-13T12:25:01.899Z,8.36
2023-12-13T12:27:50.641Z,8.35
2023-12-13T12:30:41.131Z,8.41
2023-12-13T12:33:30.984Z,8.38
2023-12-13T12:36:19.137Z,8.42
2023-12-13T12:39:07.891Z,8.36
2023-12-13T12:41:57.281Z,8.37
2023-12-13T12:44:45.427Z,8.35
2023-12-13T12:47:33.690Z,8.26
2023-12-13T12:50:23.476Z,8.26
2023-12-13T12:53:12.116Z,8.22
2023-12-13T12:56:01.718Z,8.19
2023-12-13T12:58:51.427Z,8.22
2023-12-13T13:01:39.556Z,8.24
2023-12-13T13:04:27.701Z,8.27
2023-12-13T13:07:18.855Z,8.26
2023-12-13T13:10:09.514Z,8.25
2023-12-13T13:12:58.404Z,8.24
2023-12-13T13:15:47.426Z,8.28
2023-12-13T13:18:35.492Z,8.28
2023-12-13T13:21:23.547Z,8.23
2023-12-13T13:24:12.892Z,8.26
2023-12-13T13:27:01.302Z,8.31
2023-12-13T13:29:50.079Z,8.30
2023-12-13T13:32:38.137Z,8.29
2023-12-13T13:35:26.422Z,8.27
2023-12-13T13:38:14.417Z,8.28
2023-12-13T13:41:04.740Z,8.26
2023-12-13T13:43:52.771Z,8.27
2023-12-13T13:46:40.816Z,8.28
2023-12-13T13:49:28.988Z,8.28
2023-12-13T13:52:17.165Z,8.28
2023-12-13T13:55:07.005Z,8.24
2023-12-13T13:57:56.407Z,8.22
2023-12-13T14:00:44.798Z,8.16
2023-12-13T14:03:32.969Z,8.14
2023-12-13T14:06:21.029Z,8.13
2023-12-13T14:09:09.079Z,8.10
2023-12-13T14:11:58.835Z,8.11
2023-12-13T14:14:48.489Z,8.09
2023-12-13T14:17:36.897Z,8.07
2023-12-13T14:20:25.149Z,8.06
2023-12-13T14:23:13.164Z,8.06
2023-12-13T14:26:01.739Z,8.01
2023-12-13T14:28:49.813Z,8.01
2023-12-13T14:31:39.184Z,8.01
2023-12-13T14:34:27.183Z,7.95
2023-12-13T14:37:15.372Z,7.87
2023-12-13T14:40:05.549Z,7.79
2023-12-13T14:42:53.745Z,7.76
2023-12-13T14:45:42.268Z,7.74
2023-12-13T14:48:31.682Z,7.72
2023-12-13T14:51:19.877Z,7.69
2023-12-13T14:54:07.891Z,7.67
2023-12-13T14:56:55.916Z,7.66
2023-12-13T14:59:43.968Z,7.64
2023-12-13T15:02:32.331Z,7.65
2023-12-13T15:05:21.706Z,7.65
2023-12-13T15:08:10.916Z,7.65
2023-12-13T15:10:59.063Z,7.65
2023-12-13T15:13:47.170Z,7.65
2023-12-13T15:16:35.359Z,7.66
2023-12-13T15:19:23.443Z,7.68
2023-12-13T15:22:12.835Z,7.71
2023-12-13T15:25:00.810Z,7.71
2023-12-13T15:27:48.955Z,7.63
2023-12-13T15:30:37.092Z,7.71
2023-12-13T15:33:25.804Z,7.68
2023-12-13T15:36:15.703Z,7.69
2023-12-13T15:39:05.498Z,7.69
2023-12-13T15:41:53.477Z,7.69
2023-12-13T15:44:41.451Z,7.68
2023-12-13T15:47:30.163Z,7.68
2023-12-13T15:50:18.756Z,7.69
2023-12-13T15:53:08.763Z,7.67
2023-12-13T15:55:58.298Z,7.64
2023-12-13T15:58:46.417Z,7.64
2023-12-13T16:01:35.143Z,7.64
2023-12-13T16:04:23.612Z,7.64
2023-12-13T16:07:11.620Z,7.62
2023-12-13T16:09:59.592Z,7.61
2023-12-13T16:12:50.005Z,7.60
2023-12-13T16:15:38.206Z,7.59
2023-12-13T16:18:26.293Z,7.56
2023-12-13T16:21:15.209Z,7.53
2023-12-13T16:24:03.570Z,7.51
2023-12-13T16:26:52.618Z,7.50
2023-12-13T16:29:42.157Z,7.50
2023-12-13T16:32:30.832Z,7.53
2023-12-13T16:35:19.144Z,7.54
2023-12-13T16:38:07.329Z,7.57
2023-12-13T16:40:57.398Z,7.58
2023-12-13T16:43:45.555Z,7.59
2023-12-13T16:46:34.996Z,7.61
2023-12-13T16:49:24.589Z,7.60
2023-12-13T16:52:12.646Z,7.62
2023-12-13T16:55:00.652Z,7.61
2023-12-13T16:57:49.061Z,7.63
2023-12-13T17:00:38.300Z,7.57
2023-12-13T17:03:27.733Z,7.64
2023-12-13T17:06:15.765Z,7.65
2023-12-13T17:09:04.544Z,7.60
2023-12-13T17:11:52.579Z,7.61
2023-12-13T17:14:41.058Z,7.59
2023-12-13T17:17:29.247Z,7.63
2023-12-13T17:20:18.833Z,7.62
2023-12-13T17:23:06.928Z,7.61
2023-12-13T17:25:55.066Z,7.58
2023-12-13T17:28:43.154Z,7.54
2023-12-13T17:31:31.760Z,7.48
2023-12-13T17:34:21.975Z,7.44
2023-12-13T17:37:14.607Z,7.41
2023-12-13T17:40:03.426Z,7.44
2023-12-13T17:42:51.409Z,7.39
2023-12-13T17:45:40.903Z,7.39
2023-12-13T17:48:29.126Z,7.40
2023-12-13T17:51:17.268Z,7.36
2023-12-13T17:54:06.935Z,7.37
2023-12-13T17:56:55.965Z,7.37
2023-12-13T17:59:44.032Z,7.37
2023-12-13T18:02:32.295Z,7.34
2023-12-13T18:05:20.674Z,7.34
2023-12-13T18:08:08.975Z,7.31
2023-12-13T18:10:58.456Z,7.31
2023-12-13T18:13:47.467Z,7.29
2023-12-13T18:16:40.992Z,7.30
2023-12-13T18:19:34.188Z,7.34
2023-12-13T18:22:22.145Z,7.34
2023-12-13T18:25:10.841Z,7.34
2023-12-13T18:28:00.179Z,7.32
2023-12-13T18:30:48.336Z,7.32
2023-12-13T18:33:36.473Z,7.33
2023-12-13T18:36:24.543Z,7.33
2023-12-13T18:39:12.541Z,7.32
2023-12-13T18:42:00.605Z,7.30
2023-12-13T18:44:52.642Z,7.34
2023-12-13T18:47:41.113Z,7.33
2023-12-13T18:50:29.162Z,7.32
2023-12-13T18:53:17.216Z,7.33
2023-12-13T18:56:06.013Z,7.36
2023-12-13T18:58:54.768Z,7.38
2023-12-13T19:01:44.199Z,7.37
2023-12-13T19:04:32.249Z,7.39
2023-12-13T19:07:20.309Z,7.36
2023-12-13T19:10:10.334Z,7.39
2023-12-13T19:12:58.824Z,7.41
2023-12-13T19:15:46.837Z,7.41
2023-12-13T19:18:36.314Z,7.43
2023-12-13T19:21:24.471Z,7.43
2023-12-13T19:24:13.262Z,7.41
2023-12-13T19:27:01.301Z,7.43
2023-12-13T19:29:49.264Z,7.42
2023-12-13T19:32:37.270Z,7.46
2023-12-13T19:35:26.845Z,7.47
2023-12-13T19:38:15.195Z,7.44
2023-12-13T19:41:03.666Z,7.44
2023-12-13T19:43:51.741Z,7.44
2023-12-13T19:46:39.811Z,7.41
2023-12-13T19:49:27.929Z,7.42
2023-12-13T19:52:17.241Z,7.43
2023-12-13T19:55:05.737Z,7.42
2023-12-13T19:57:53.769Z,7.41
2023-12-13T20:00:42.699Z,7.44
2023-12-13T20:03:30.748Z,7.43
2023-12-13T20:06:20.455Z,7.43
2023-12-13T20:09:09.985Z,7.42
2023-12-13T20:11:57.970Z,7.38
2023-12-13T20:14:45.938Z,7.36
2023-12-13T20:17:34.165Z,7.26
2023-12-13T20:20:22.473Z,7.21
2023-12-13T20:23:10.494Z,7.17
2023-12-13T20:26:02.147Z,7.13
2023-12-13T20:28:50.216Z,7.13
2023-12-13T20:31:38.843Z,7.11
2023-12-13T20:34:27.019Z,7.11
2023-12-13T20:37:16.145Z,7.06
2023-12-13T20:40:04.335Z,7.02
2023-12-13T20:42:53.661Z,6.97
2023-12-13T20:45:41.671Z,6.87
2023-12-13T20:48:29.811Z,6.75
2023-12-13T20:51:17.832Z,6.60
2023-12-13T20:54:06.174Z,6.58
2023-12-13T20:56:54.152Z,6.43
2023-12-13T20:59:43.454Z,6.41
2023-12-13T21:02:31.964Z,6.38
2023-12-13T21:05:20.239Z,6.34
2023-12-13T21:08:08.389Z,6.35
2023-12-13T21:10:56.501Z,6.33
2023-12-13T21:13:44.621Z,6.31
2023-12-13T21:16:34.546Z,6.30
2023-12-13T21:19:22.514Z,6.25
2023-12-13T21:22:10.559Z,6.23
2023-12-13T21:24:58.611Z,6.23
2023-12-13T21:27:46.653Z,6.17
2023-12-13T21:30:34.709Z,6.07
2023-12-13T21:33:24.185Z,6.07
2023-12-13T21:36:12.450Z,6.06
2023-12-13T21:39:01.036Z,5.95
2023-12-13T21:41:49.109Z,5.85
2023-12-13T21:44:37.086Z,5.77
2023-12-13T21:47:26.965Z,5.71
2023-12-13T21:50:16.411Z,5.67
2023-12-13T21:53:04.531Z,5.64
2023-12-13T21:55:52.631Z,5.59
2023-12-13T21:58:40.693Z,5.52
2023-12-13T22:01:28.824Z,5.50
2023-12-13T22:04:16.797Z,5.42
2023-12-13T22:07:06.207Z,5.38
2023-12-13T22:09:54.161Z,5.34
2023-12-13T22:12:42.220Z,5.33
2023-12-13T22:15:30.317Z,5.28
2023-12-13T22:18:23.332Z,5.30
2023-12-13T22:21:11.548Z,5.27
2023-12-13T22:24:00.855Z,5.22
2023-12-13T22:26:48.810Z,5.17
2023-12-13T22:29:36.930Z,5.18
2023-12-13T22:32:25.013Z,5.17
2023-12-13T22:35:13.147Z,5.19
2023-12-13T22:38:01.324Z,5.15
2023-12-13T22:40:50.644Z,5.15
2023-12-13T22:43:38.621Z,5.17
2023-12-13T22:46:26.642Z,5.13
2023-12-13T22:49:17.657Z,5.11
2023-12-13T22:52:20.089Z,5.10
2023-12-13T22:55:13.568Z,5.04
2023-12-13T22:58:03.451Z,5.03
2023-12-13T23:00:51.478Z,5.03
2023-12-13T23:03:40.137Z,5.00
2023-12-13T23:06:29.230Z,4.97
2023-12-13T23:09:17.665Z,4.95
2023-12-13T23:12:06.533Z,4.95
2023-12-13T23:14:55.925Z,4.88
2023-12-13T23:17:44.369Z,4.83
2023-12-13T23:20:32.506Z,4.82
2023-12-13T23:23:20.720Z,4.83
2023-12-13T23:26:09.586Z,4.80
2023-12-13T23:28:57.687Z,4.81
2023-12-13T23:31:47.115Z,4.81
2023-12-13T23:34:35.412Z,4.81
2023-12-13T23:37:23.617Z,4.76
2023-12-13T23:40:13.009Z,4.69
2023-12-13T23:43:00.941Z,4.64
2023-12-13T23:45:49.023Z,4.65
2023-12-13T23:48:38.438Z,4.68
2023-12-13T23:51:26.575Z,4.69
2023-12-13T23:54:14.802Z,4.68
2023-12-13T23:57:02.853Z,4.66
2023-12-13T23:59:50.889Z,4.69
